Historyczne dane pomiarowe

Dodano dane terminowe – wersja testowa.

Dane z okresu 1951-2019

Wersja bazy: 1.34 [2019-03-16, lista zmian], aktualizacja planowana na 2019-04-15

Dane meteo z obszaru Polski uzyskane na podstawie danych udostępnionych przez Instytut Meteorologii i Gospodarki Wodnej – Państwowy Instytut Badawczy.

 

Wybierz Datę:    

       

TemperaturaWilgotnośćZachmurzenieWiatrCiśnienieWidzialnośćZjawiska
 Data    tng td wb rh cc ccl cl cm ch dir g1 g2 mslp ppp      
1999-07-06 00:00:00 19.6--- 17.3 18.187wxwx2wx--1011.6 987.6 0.0---wx
1999-07-06 01:00:00 19.4--- 16.8 17.785wxwx2wx--1011.3 987.3----wx
1999-07-06 02:00:00 17.0--- 16.2 16.595wxwx1wx--1011.1 986.9----wx
1999-07-06 03:00:00 17.0--- 16.0 16.494wxwxwx1wx--1011.2 987.0----wx
1999-07-06 04:00:00 17.8--- 16.5 17.092wxwxwx1wx--1010.8 986.7----wx
1999-07-06 05:00:00 20.0--- 18.3 18.990wxwxwx1wx--1010.9 987.0----wx
1999-07-06 06:00:00 23.2--- 18.7 20.276wxwxwxwx2wx--1010.4 986.7 0.0---wx
1999-07-06 07:00:00 25.0--- 19.6 21.372wxwxwx0wx--1010.2 986.7----wx
1999-07-06 08:00:00 27.6--- 18.9 21.759wxwxwx2wx--1009.6 986.3----wx
1999-07-06 09:00:00 29.0--- 19.0 22.255wxwxwx4wx--1009.4 986.2----wx
1999-07-06 10:00:00 29.8--- 18.5 22.151wxwxwx6wx--1009.1 986.0----wx
1999-07-06 11:00:00 30.6--- 18.0 22.147wxwxwx6wx--1008.9 985.8----wx
1999-07-06 12:00:00 31.0--- 18.7 22.648wxwxwx6wx--1008.5 985.5 0.0---wx
1999-07-06 13:00:00 30.8--- 18.5 22.448wxwxwx6wx--1008.5 985.5----wx
1999-07-06 14:00:00 30.1--- 18.6 22.350wxwxwxwx6wx--1008.5 985.4----wx
1999-07-06 15:00:00 30.5--- 20.3 23.455wxwxwxwx5wx--1007.7 984.7----wx
1999-07-06 16:00:00 30.4--- 20.0 23.254wxwxwxwx4wx--1008.1 985.0----wx
1999-07-06 17:00:00 28.9--- 21.2 23.563wxwxwxwx2wx--1008.3 985.1----wx
1999-07-06 18:00:00 28.2--- 21.4 23.467wxwxwxwx0wx--1008.0 984.8 0.0---wx
1999-07-06 19:00:00 23.0--- 20.8 21.588wxwxwxwx3wx--1009.9 986.2----wx
1999-07-06 20:00:00 21.5--- 20.2 20.692wxwxwx2wx--1009.9 986.1----wx
1999-07-06 21:00:00 20.4--- 19.5 19.895wxwxwxwx2wx--1010.5 986.6----wx
1999-07-06 22:00:00 20.4--- 18.9 19.491wxwxwx4wx--1011.9 988.0----wx
1999-07-06 23:00:00 19.9--- 18.4 18.991wxwxwx2wx--1012.4 988.4----wx

 

Źródłem pochodzenia danych jest Instytut Meteorologii i Gospodarki Wodnej – Państwowy Instytut Badawczy. Dane Instytutu Meteorologii i Gospodarki Wodnej – Państwowego Instytutu Badawczego zostały przetworzone.

Dane źródłowe można odnaleźć na stronie https://dane.imgw.pl